M I D A S
Marine Information and Data Acquisition System
Tripno 369 of the Zeeleeuw from 2002-12-13 08:24:36 to 2002-12-13 14:47:19
Back to CruiseResearch ActivitiesStationsMapUnderway DataData graphs

EquipmentUnitsComments
TimeDGPSUTC
LatitudeDGPSDM.mWGS84
LongitudeDGPSDM.mWGS84
SpeedMeteo Stationm/sRelative wind speed
DirectionMeteo StationdegRelative wind direction
TemperatureMeteo Stationdeg CelciusAir temperature
PressureMeteo StationPaAtmospheric pressure
HumidityMeteo Station%Relative humidity
Missing or incorrect values are displayed as -999
Metereological data collected by the RV Zeeleeuw from 2002-12-13 08:24:36 to 2002-12-13 14:47:19
                                                                                    Next 1000 lines
Time Latitude Longitude Speed Direction Temperature Pressure Humidity
2002-12-13 08:24:44 51°11.187 2°44.906 5 271 1.3 102110 97
2002-12-13 08:24:49 51°11.179 2°44.879 3.9 271 1.3 102120 97
2002-12-13 08:24:53 51°11.174 2°44.857 3.8 281 1.3 102120 97
2002-12-13 08:24:59 51°11.165 2°44.825 3.5 256 1.3 102110 97
2002-12-13 08:25:04 51°11.158 2°44.798 3.8 256 1.3 102110 97
2002-12-13 08:25:09 51°11.151 2°44.771 4.8 257 1.3 102110 97
2002-12-13 08:25:13 51°11.144 2°44.749 4.4 256 1.3 102110 97
2002-12-13 08:25:19 51°11.135 2°44.717 3.6 251 1.3 102100 97
2002-12-13 08:25:24 51°11.128 2°44.69 4.1 255 1.3 102100 97
2002-12-13 08:25:29 51°11.121 2°44.662 4.3 265 1.3 102110 97
2002-12-13 08:25:34 51°11.114 2°44.635 4.6 270 1.3 102110 97
2002-12-13 08:25:39 51°11.106 2°44.607 4.4 267 1.3 102110 97
2002-12-13 08:25:43 51°11.1 2°44.586 4.7 271 1.3 102110 97
2002-12-13 08:25:49 51°11.091 2°44.553 3.9 267 1.3 102110 97
2002-12-13 08:25:54 51°11.084 2°44.527 3.5 276 1.3 102110 97
2002-12-13 08:25:59 51°11.077 2°44.499 3.4 275 1.3 102110 97
2002-12-13 08:26:03 51°11.071 2°44.477 3.1 271 1.3 102110 97
2002-12-13 08:26:09 51°11.062 2°44.444 3.4 279 1.3 102110 97
2002-12-13 08:26:14 51°11.054 2°44.417 2.9 275 1.3 102110 97
2002-12-13 08:26:19 51°11.048 2°44.39 3.1 272 1.3 102110 97
2002-12-13 08:26:24 51°11.04 2°44.362 3.5 264 1.3 102110 97
2002-12-13 08:26:29 51°11.032 2°44.335 3.4 269 1.3 102110 97
2002-12-13 08:26:33 51°11.026 2°44.314 3.5 285 1.3 102110 97
2002-12-13 08:26:39 51°11.016 2°44.282 3.8 285 1.3 102110 97
2002-12-13 08:26:44 51°11.01 2°44.254 3.9 288 1.3 102110 97
2002-12-13 08:26:49 51°11.001 2°44.228 3.3 283 1.3 102110 97
2002-12-13 08:26:54 51°10.995 2°44.2 4.1 284 1.3 102110 97
2002-12-13 08:26:59 51°10.987 2°44.173 3.8 285 1.3 102100 97
2002-12-13 08:27:04 51°10.979 2°44.146 3.9 289 1.3 102100 97
2002-12-13 08:27:09 51°10.971 2°44.119 3.3 294 1.3 102110 97
2002-12-13 08:27:13 51°10.965 2°44.097 3.4 293 1.3 102110 97
2002-12-13 08:27:19 51°10.956 2°44.064 3.6 289 1.3 102100 97
2002-12-13 08:27:24 51°10.949 2°44.037 4.2 275 1.3 102100 97
2002-12-13 08:27:29 51°10.942 2°44.01 3.9 283 1.3 102110 97
2002-12-13 08:27:34 51°10.935 2°43.982 3.4 279 1.3 102110 97
2002-12-13 08:27:38 51°10.929 2°43.96 3.6 281 1.3 102110 97
2002-12-13 08:27:44 51°10.92 2°43.928 4.2 281 1.3 102110 97
2002-12-13 08:27:49 51°10.913 2°43.901 4.1 285 1.3 102100 97
2002-12-13 08:27:53 51°10.907 2°43.879 4.5 288 1.3 102100 97
2002-12-13 08:27:59 51°10.898 2°43.846 4.2 285 1.3 102100 97
2002-12-13 08:28:04 51°10.89 2°43.819 4.7 298 1.3 102100 97
2002-12-13 08:28:09 51°10.883 2°43.792 3.6 291 1.3 102110 97
2002-12-13 08:28:13 51°10.877 2°43.77 4.1 282 1.3 102110 97
2002-12-13 08:28:17 51°10.871 2°43.748 4.3 281 1.3 102100 97
2002-12-13 08:28:24 51°10.86 2°43.71 4.1 287 1.3 102100 97
2002-12-13 08:28:29 51°10.854 2°43.683 3.6 289 1.3 102100 97
2002-12-13 08:28:33 51°10.848 2°43.661 3.9 277 1.3 102100 97
2002-12-13 08:28:39 51°10.839 2°43.628 3.6 287 1.3 102100 97
2002-12-13 08:28:44 51°10.831 2°43.601 4.5 281 1.3 102100 97
2002-12-13 08:28:49 51°10.823 2°43.573 4.4 287 1.3 102100 97
2002-12-13 08:28:53 51°10.816 2°43.552 4.3 288 1.3 102100 97
2002-12-13 08:28:59 51°10.807 2°43.519 4.3 292 1.3 102110 97
2002-12-13 08:29:04 51°10.8 2°43.491 4.7 294 1.3 102110 97
2002-12-13 08:29:09 51°10.792 2°43.464 4.2 291 1.4 102100 97
2002-12-13 08:29:14 51°10.785 2°43.437 4.4 298 1.4 102100 97
2002-12-13 08:29:19 51°10.777 2°43.409 4.3 291 1.4 102100 97
2002-12-13 08:29:23 51°10.771 2°43.387 4 294 1.4 102100 97
2002-12-13 08:29:29 51°10.763 2°43.355 4.1 296 1.4 102100 97
2002-12-13 08:29:34 51°10.755 2°43.327 3.8 285 1.4 102100 97
2002-12-13 08:29:39 51°10.748 2°43.3 3.5 288 1.4 102100 97
2002-12-13 08:29:44 51°10.741 2°43.272 3.9 290 1.4 102100 97
2002-12-13 08:29:49 51°10.734 2°43.245 4.3 290 1.4 102110 97
2002-12-13 08:29:53 51°10.728 2°43.224 4.6 302 1.4 102110 97
2002-12-13 08:29:59 51°10.719 2°43.191 4.2 301 1.4 102110 97
2002-12-13 08:30:04 51°10.711 2°43.164 4.4 292 1.4 102110 97
2002-12-13 08:30:09 51°10.704 2°43.137 4.5 298 1.4 102110 97
2002-12-13 08:30:14 51°10.696 2°43.11 4.5 285 1.4 102110 97
2002-12-13 08:30:19 51°10.689 2°43.082 4.2 289 1.4 102100 97
2002-12-13 08:30:23 51°10.683 2°43.061 4.7 296 1.4 102100 97
2002-12-13 08:30:29 51°10.675 2°43.028 4.5 294 1.4 102100 97
2002-12-13 08:30:33 51°10.669 2°43.006 4 292 1.4 102100 97
2002-12-13 08:30:39 51°10.66 2°42.974 4.4 297 1.4 102110 97
2002-12-13 08:30:44 51°10.653 2°42.947 4.3 294 1.4 102110 97
2002-12-13 08:30:49 51°10.645 2°42.92 4.1 295 1.4 102110 97
2002-12-13 08:30:54 51°10.638 2°42.893 4.2 291 1.4 102110 97
2002-12-13 08:30:59 51°10.63 2°42.867 4.6 287 1.4 102100 97
2002-12-13 08:31:04 51°10.622 2°42.84 5 296 1.4 102100 97
2002-12-13 08:31:09 51°10.614 2°42.813 4.9 295 1.4 102110 97
2002-12-13 08:31:14 51°10.607 2°42.786 4.2 292 1.4 102110 97
2002-12-13 08:31:19 51°10.6 2°42.759 4.9 292 1.4 102100 97
2002-12-13 08:31:23 51°10.594 2°42.737 5 292 1.4 102100 97
2002-12-13 08:31:29 51°10.585 2°42.705 5 297 1.4 102100 97
2002-12-13 08:31:34 51°10.578 2°42.678 4.6 298 1.4 102100 97
2002-12-13 08:31:39 51°10.57 2°42.651 4.9 302 1.4 102100 97
2002-12-13 08:31:44 51°10.563 2°42.624 3.7 302 1.4 102100 97
2002-12-13 08:31:49 51°10.556 2°42.597 4.2 291 1.4 102100 97
2002-12-13 08:31:54 51°10.548 2°42.57 4 288 1.4 102100 97
2002-12-13 08:31:59 51°10.541 2°42.543 4.8 285 1.4 102110 97
2002-12-13 08:32:03 51°10.535 2°42.522 4.6 298 1.4 102110 97
2002-12-13 08:32:09 51°10.526 2°42.489 4.9 309 1.4 102100 97
2002-12-13 08:32:14 51°10.518 2°42.463 3.9 296 1.4 102100 97
2002-12-13 08:32:19 51°10.511 2°42.435 4 295 1.4 102100 97
2002-12-13 08:32:24 51°10.503 2°42.409 4 281 1.4 102100 97
2002-12-13 08:32:29 51°10.496 2°42.381 4.3 293 1.4 102100 97
2002-12-13 08:32:34 51°10.488 2°42.355 3.7 302 1.4 102100 97
2002-12-13 08:32:39 51°10.481 2°42.328 4.6 299 1.4 102110 97
2002-12-13 08:32:44 51°10.473 2°42.301 4.2 292 1.4 102110 97
2002-12-13 08:32:49 51°10.466 2°42.274 4.5 284 1.4 102100 97
2002-12-13 08:32:53 51°10.46 2°42.253 4 279 1.4 102100 97
2002-12-13 08:32:57 51°10.454 2°42.231 4.2 276 1.3 102100 97
2002-12-13 08:33:04 51°10.443 2°42.194 4.3 287 1.3 102100 97
2002-12-13 08:33:09 51°10.436 2°42.167 4.5 285 1.3 102100 97
2002-12-13 08:33:14 51°10.429 2°42.14 4.9 292 1.3 102100 97
2002-12-13 08:33:19 51°10.421 2°42.113 4.1 287 1.3 102110 97
2002-12-13 08:33:24 51°10.414 2°42.086 4.2 288 1.3 102110 97
2002-12-13 08:33:29 51°10.407 2°42.059 4.3 284 1.3 102100 97
2002-12-13 08:33:33 51°10.4 2°42.037 3.9 262 1.3 102100 97
2002-12-13 08:33:39 51°10.392 2°42.005 4.3 273 1.3 102120 97
2002-12-13 08:33:44 51°10.384 2°41.978 3.9 273 1.3 102120 97
2002-12-13 08:33:49 51°10.377 2°41.951 4 279 1.3 102100 97
2002-12-13 08:33:54 51°10.369 2°41.924 3.7 285 1.3 102100 97
2002-12-13 08:33:59 51°10.362 2°41.898 3.7 292 1.3 102100 97
2002-12-13 08:34:04 51°10.354 2°41.871 3.6 283 1.3 102100 97
2002-12-13 08:34:09 51°10.346 2°41.844 3.6 275 1.3 102100 97
2002-12-13 08:34:13 51°10.341 2°41.822 3.4 284 1.3 102100 97
2002-12-13 08:34:17 51°10.335 2°41.801 3.7 274 1.3 102100 97
2002-12-13 08:34:24 51°10.325 2°41.763 3.9 277 1.3 102100 97
2002-12-13 08:34:29 51°10.317 2°41.736 4 267 1.3 102100 97
2002-12-13 08:34:34 51°10.31 2°41.709 4.2 286 1.3 102100 97
2002-12-13 08:34:39 51°10.302 2°41.682 4.4 275 1.3 102100 97
2002-12-13 08:34:43 51°10.296 2°41.661 4.6 276 1.3 102100 97
2002-12-13 08:34:49 51°10.287 2°41.628 4.8 291 1.3 102100 97
2002-12-13 08:34:54 51°10.279 2°41.602 4 279 1.3 102100 97
2002-12-13 08:34:59 51°10.272 2°41.575 4.2 282 1.3 102100 97
2002-12-13 08:35:04 51°10.265 2°41.548 3.6 282 1.3 102100 97
2002-12-13 08:35:09 51°10.257 2°41.521 3.8 282 1.3 102100 97
2002-12-13 08:35:14 51°10.25 2°41.494 3.9 279 1.3 102100 97
2002-12-13 08:35:18 51°10.244 2°41.473 4.3 278 1.3 102100 97
2002-12-13 08:35:23 51°10.236 2°41.446 3.6 274 1.3 102100 97
2002-12-13 08:35:29 51°10.227 2°41.414 3.3 269 1.3 102100 97
2002-12-13 08:35:34 51°10.219 2°41.387 4.5 291 1.3 102100 97
2002-12-13 08:35:39 51°10.212 2°41.36 4.2 286 1.3 102100 97
2002-12-13 08:35:43 51°10.206 2°41.339 4 288 1.3 102100 97
2002-12-13 08:35:49 51°10.197 2°41.307 4.1 287 1.3 102100 97
2002-12-13 08:35:54 51°10.189 2°41.28 3.8 277 1.3 102100 97
2002-12-13 08:35:59 51°10.181 2°41.253 4.1 282 1.3 102100 97
2002-12-13 08:36:04 51°10.173 2°41.227 4 283 1.3 102100 97
2002-12-13 08:36:09 51°10.166 2°41.2 4.2 286 1.3 102100 97
2002-12-13 08:36:14 51°10.158 2°41.173 4.4 285 1.3 102100 97
2002-12-13 08:36:19 51°10.151 2°41.146 4.1 287 1.3 102100 97
2002-12-13 08:36:24 51°10.143 2°41.12 3.8 288 1.3 102100 97
2002-12-13 08:36:29 51°10.136 2°41.093 3.6 281 1.3 102100 97
2002-12-13 08:36:33 51°10.13 2°41.071 3.9 281 1.3 102100 97
2002-12-13 08:36:39 51°10.121 2°41.039 3.2 283 1.4 102100 97
2002-12-13 08:36:44 51°10.113 2°41.012 3.1 287 1.4 102100 97
2002-12-13 08:36:49 51°10.106 2°40.985 4.1 284 1.4 102100 97
2002-12-13 08:36:53 51°10.1 2°40.964 4.6 266 1.4 102100 97
2002-12-13 08:36:59 51°10.091 2°40.932 4.8 279 1.4 102100 97
2002-12-13 08:37:03 51°10.085 2°40.91 4.1 288 1.4 102100 97
2002-12-13 08:37:09 51°10.076 2°40.878 3.3 285 1.4 102100 97
2002-12-13 08:37:13 51°10.07 2°40.857 3.9 279 1.4 102100 97
2002-12-13 08:37:19 51°10.061 2°40.824 4.1 260 1.4 102100 97
2002-12-13 08:37:24 51°10.054 2°40.797 5.1 282 1.4 102100 97
2002-12-13 08:37:29 51°10.046 2°40.771 4.5 276 1.4 102100 97
2002-12-13 08:37:33 51°10.04 2°40.749 4.1 273 1.4 102100 97
2002-12-13 08:37:39 51°10.031 2°40.717 4.8 265 1.4 102100 97
2002-12-13 08:37:44 51°10.023 2°40.69 5 271 1.4 102100 97
2002-12-13 08:37:49 51°10.015 2°40.663 4.6 275 1.4 102100 97
2002-12-13 08:37:54 51°10.009 2°40.636 4.9 281 1.4 102100 97
2002-12-13 08:37:59 51°10 2°40.61 4.7 277 1.4 102100 97
2002-12-13 08:38:04 51°9.994 2°40.583 4.6 284 1.4 102100 97
2002-12-13 08:38:09 51°9.986 2°40.556 3.2 274 1.4 102100 97
2002-12-13 08:38:14 51°9.979 2°40.529 3.9 269 1.4 102100 97
2002-12-13 08:38:19 51°9.972 2°40.502 4 265 1.4 102100 97
2002-12-13 08:38:23 51°9.966 2°40.481 4.6 283 1.4 102100 97
2002-12-13 08:38:29 51°9.957 2°40.449 3.9 279 1.4 102100 97
2002-12-13 08:38:33 51°9.951 2°40.427 3.9 278 1.4 102100 97
2002-12-13 08:38:39 51°9.941 2°40.395 4.1 277 1.4 102100 97
2002-12-13 08:38:44 51°9.934 2°40.369 4.2 279 1.4 102100 97
2002-12-13 08:38:49 51°9.926 2°40.342 4.2 277 1.4 102100 97
2002-12-13 08:38:53 51°9.92 2°40.321 4.3 275 1.4 102100 97
2002-12-13 08:38:57 51°9.914 2°40.3 4 273 1.4 102100 97
2002-12-13 08:39:03 51°9.905 2°40.268 4.8 267 1.4 102100 97
2002-12-13 08:39:09 51°9.896 2°40.236 4.6 269 1.4 102100 97
2002-12-13 08:39:13 51°9.89 2°40.215 4.9 277 1.4 102100 97
2002-12-13 08:39:19 51°9.881 2°40.182 4.3 274 1.4 102100 97
2002-12-13 08:39:24 51°9.873 2°40.156 4.3 278 1.4 102100 97
2002-12-13 08:39:29 51°9.866 2°40.129 4 272 1.4 102110 97
2002-12-13 08:39:34 51°9.859 2°40.103 4.3 273 1.4 102110 97
2002-12-13 08:39:39 51°9.851 2°40.076 4 273 1.4 102110 97
2002-12-13 08:39:43 51°9.845 2°40.054 3.9 267 1.4 102110 97
2002-12-13 08:39:49 51°9.836 2°40.023 3.7 270 1.4 102110 97
2002-12-13 08:39:54 51°9.829 2°39.996 3.4 278 1.4 102110 97
2002-12-13 08:39:59 51°9.821 2°39.969 3.5 270 1.4 102100 97
2002-12-13 08:40:04 51°9.814 2°39.943 3.5 260 1.4 102100 97
2002-12-13 08:40:09 51°9.807 2°39.916 3.5 264 1.4 102110 97
2002-12-13 08:40:13 51°9.801 2°39.894 3.7 265 1.4 102110 97
2002-12-13 08:40:19 51°9.792 2°39.862 3.8 273 1.4 102100 97
2002-12-13 08:40:24 51°9.784 2°39.836 3.2 274 1.4 102100 97
2002-12-13 08:40:29 51°9.777 2°39.809 3.7 273 1.4 102100 97
2002-12-13 08:40:34 51°9.769 2°39.783 3.9 274 1.4 102100 97
2002-12-13 08:40:37 51°9.765 2°39.767 4 269 1.4 102110 97
2002-12-13 08:40:44 51°9.754 2°39.729 4.4 272 1.4 102110 97
2002-12-13 08:40:49 51°9.746 2°39.703 4.1 272 1.4 102110 97
2002-12-13 08:40:54 51°9.739 2°39.676 4.3 278 1.4 102110 97
2002-12-13 08:40:59 51°9.731 2°39.65 3.9 280 1.4 102100 97
2002-12-13 08:41:03 51°9.726 2°39.628 3.7 272 1.4 102100 97
2002-12-13 08:41:09 51°9.717 2°39.596 3.6 266 1.4 102110 97
2002-12-13 08:41:14 51°9.71 2°39.569 3.9 276 1.4 102110 97
2002-12-13 08:41:19 51°9.702 2°39.542 4.1 276 1.4 102100 97
2002-12-13 08:41:24 51°9.694 2°39.515 3.9 278 1.4 102100 97
2002-12-13 08:41:29 51°9.687 2°39.489 3.9 272 1.4 102100 97
2002-12-13 08:41:33 51°9.681 2°39.467 3.9 279 1.4 102100 97
2002-12-13 08:41:39 51°9.672 2°39.435 3.7 275 1.4 102100 97
2002-12-13 08:41:44 51°9.665 2°39.408 3.8 271 1.4 102100 97
2002-12-13 08:41:49 51°9.657 2°39.382 3.9 282 1.4 102100 97
2002-12-13 08:41:53 51°9.651 2°39.36 4.1 274 1.4 102100 97
2002-12-13 08:41:59 51°9.643 2°39.328 4.4 281 1.4 102100 97
2002-12-13 08:42:03 51°9.637 2°39.307 4.4 280 1.4 102100 97
2002-12-13 08:42:09 51°9.628 2°39.274 4.7 281 1.4 102100 97
2002-12-13 08:42:14 51°9.62 2°39.248 4.4 280 1.4 102100 97
2002-12-13 08:42:19 51°9.612 2°39.221 4.3 270 1.5 102100 97
2002-12-13 08:42:23 51°9.606 2°39.2 4.8 263 1.5 102100 97
2002-12-13 08:42:29 51°9.597 2°39.167 5.1 274 1.5 102100 97
2002-12-13 08:42:34 51°9.59 2°39.14 4.8 272 1.5 102100 97
2002-12-13 08:42:38 51°9.584 2°39.119 5 279 1.5 102100 97
2002-12-13 08:42:44 51°9.576 2°39.086 4.6 280 1.5 102100 97
2002-12-13 08:42:49 51°9.568 2°39.059 4.5 276 1.5 102100 97
2002-12-13 08:42:54 51°9.561 2°39.033 5.3 279 1.5 102100 97
2002-12-13 08:42:59 51°9.553 2°39.006 5.3 288 1.5 102100 97
2002-12-13 08:43:04 51°9.546 2°38.979 4.6 289 1.5 102100 97
2002-12-13 08:43:09 51°9.538 2°38.952 4.1 277 1.5 102100 97
2002-12-13 08:43:13 51°9.532 2°38.93 4.6 275 1.5 102100 97
2002-12-13 08:43:19 51°9.523 2°38.898 4.4 280 1.5 102100 97
2002-12-13 08:43:24 51°9.516 2°38.871 4.3 278 1.5 102100 97
2002-12-13 08:43:29 51°9.509 2°38.844 4 278 1.5 102100 97
2002-12-13 08:43:34 51°9.501 2°38.817 4.1 278 1.5 102100 97
2002-12-13 08:43:39 51°9.494 2°38.79 3.9 274 1.5 102100 97
2002-12-13 08:43:43 51°9.488 2°38.768 4 279 1.5 102100 97
2002-12-13 08:43:49 51°9.479 2°38.736 4.5 277 1.5 102100 97
2002-12-13 08:43:54 51°9.471 2°38.709 5.2 275 1.5 102100 97
2002-12-13 08:43:59 51°9.464 2°38.682 5 283 1.5 102100 97
2002-12-13 08:44:03 51°9.458 2°38.66 4.8 284 1.5 102100 97
2002-12-13 08:44:09 51°9.449 2°38.627 4.7 278 1.5 102100 97
2002-12-13 08:44:14 51°9.441 2°38.6 4.7 279 1.5 102100 97
2002-12-13 08:44:19 51°9.434 2°38.573 4.9 278 1.6 102100 97
2002-12-13 08:44:24 51°9.427 2°38.546 4.6 276 1.6 102100 97
2002-12-13 08:44:29 51°9.419 2°38.519 4.6 280 1.5 102100 97
2002-12-13 08:44:33 51°9.413 2°38.497 4.4 271 1.5 102100 97
2002-12-13 08:44:39 51°9.404 2°38.465 4.6 275 1.5 102100 97
2002-12-13 08:44:44 51°9.397 2°38.437 4.4 284 1.5 102100 97
2002-12-13 08:44:49 51°9.389 2°38.41 4.3 281 1.5 102100 97
2002-12-13 08:44:54 51°9.382 2°38.383 4.3 286 1.5 102100 97
2002-12-13 08:44:59 51°9.375 2°38.355 4.2 285 1.6 102100 97
2002-12-13 08:45:04 51°9.367 2°38.328 4.2 280 1.6 102100 97
2002-12-13 08:45:09 51°9.359 2°38.301 4 269 1.6 102100 97
2002-12-13 08:45:13 51°9.354 2°38.279 4.3 265 1.6 102100 97
2002-12-13 08:45:19 51°9.344 2°38.246 4.8 268 1.6 102100 97
2002-12-13 08:45:24 51°9.337 2°38.219 5.8 279 1.6 102100 97
2002-12-13 08:45:29 51°9.329 2°38.192 4.8 275 1.6 102100 97
2002-12-13 08:45:34 51°9.322 2°38.164 5 278 1.6 102100 97
2002-12-13 08:45:39 51°9.315 2°38.137 4.8 278 1.6 102100 97
2002-12-13 08:45:44 51°9.306 2°38.11 5.2 284 1.6 102100 97
2002-12-13 08:45:49 51°9.299 2°38.082 4.4 278 1.6 102100 97
2002-12-13 08:45:53 51°9.293 2°38.06 4.2 280 1.6 102100 97
2002-12-13 08:45:59 51°9.284 2°38.028 4 268 1.6 102100 97
2002-12-13 08:46:04 51°9.276 2°38.001 4.4 271 1.6 102100 97
2002-12-13 08:46:09 51°9.268 2°37.973 4.5 270 1.5 102100 97
2002-12-13 08:46:13 51°9.262 2°37.951 4.3 272 1.5 102100 97
2002-12-13 08:46:19 51°9.253 2°37.918 4.4 281 1.6 102100 97
2002-12-13 08:46:24 51°9.246 2°37.891 4.5 272 1.6 102100 97
2002-12-13 08:46:29 51°9.238 2°37.864 4.8 272 1.5 102100 97
2002-12-13 08:46:34 51°9.231 2°37.836 4.5 281 1.5 102100 97
2002-12-13 08:46:38 51°9.225 2°37.815 4.5 285 1.6 102100 97
2002-12-13 08:46:44 51°9.215 2°37.782 4.3 272 1.6 102100 97
2002-12-13 08:46:49 51°9.207 2°37.755 4.5 274 1.6 102100 97
2002-12-13 08:46:54 51°9.2 2°37.727 4.3 268 1.6 102100 97
2002-12-13 08:46:59 51°9.192 2°37.7 4.1 270 1.6 102100 97
2002-12-13 08:47:04 51°9.185 2°37.672 4.1 273 1.6 102100 97
2002-12-13 08:47:09 51°9.178 2°37.645 5 273 1.6 102100 97
2002-12-13 08:47:14 51°9.17 2°37.617 4.1 280 1.6 102100 97
2002-12-13 08:47:19 51°9.163 2°37.59 4.2 270 1.6 102100 97
2002-12-13 08:47:23 51°9.156 2°37.568 4.9 285 1.6 102100 97
2002-12-13 08:47:29 51°9.147 2°37.536 4.4 286 1.6 102110 97
2002-12-13 08:47:34 51°9.14 2°37.508 4.1 284 1.6 102110 97
2002-12-13 08:47:39 51°9.132 2°37.481 4 269 1.6 102100 97
2002-12-13 08:47:44 51°9.125 2°37.454 4.1 273 1.6 102100 97
2002-12-13 08:47:49 51°9.118 2°37.426 4.4 278 1.6 102100 97
2002-12-13 08:47:54 51°9.11 2°37.399 4.1 283 1.6 102100 97
2002-12-13 08:47:59 51°9.103 2°37.372 4 273 1.6 102100 97
2002-12-13 08:48:03 51°9.097 2°37.352 3.2 284 1.6 102100 97
2002-12-13 08:48:09 51°9.089 2°37.324 3.2 298 1.6 102100 97
2002-12-13 08:48:14 51°9.083 2°37.302 2.6 296 1.6 102100 97
2002-12-13 08:48:19 51°9.079 2°37.281 2.2 301 1.6 102100 97
2002-12-13 08:48:23 51°9.075 2°37.266 1.2 339 1.6 102100 97
2002-12-13 08:48:29 51°9.072 2°37.246 1.2 302 1.6 102110 97
2002-12-13 08:48:34 51°9.068 2°37.232 0.8 356 1.6 102110 97
2002-12-13 08:48:39 51°9.066 2°37.218 1.4 345 1.6 102110 97
2002-12-13 08:48:44 51°9.064 2°37.207 2 21 1.6 102110 97
2002-12-13 08:48:49 51°9.063 2°37.197 2.1 33 1.6 102110 97
2002-12-13 08:48:53 51°9.063 2°37.19 1.9 41 1.6 102110 97
2002-12-13 08:48:59 51°9.063 2°37.182 2.9 319 1.6 102100 97
2002-12-13 08:49:04 51°9.064 2°37.177 2.7 60 1.6 102100 97
2002-12-13 08:49:09 51°9.064 2°37.174 2.7 59 1.6 102110 97
2002-12-13 08:49:14 51°9.065 2°37.172 3.5 66 1.6 102110 97
2002-12-13 08:49:19 51°9.066 2°37.17 4 67 1.6 102110 97
2002-12-13 08:49:23 51°9.066 2°37.169 3.6 73 1.6 102110 97
2002-12-13 08:49:29 51°9.068 2°37.167 3.8 76 1.6 102120 97
2002-12-13 08:49:34 51°9.068 2°37.165 4.1 81 1.6 102120 97
2002-12-13 08:49:39 51°9.069 2°37.164 4 73 1.7 102120 97
2002-12-13 08:49:44 51°9.07 2°37.163 3.9 77 1.7 102120 97
2002-12-13 08:49:49 51°9.071 2°37.162 3.6 76 1.7 102110 97
2002-12-13 08:49:53 51°9.072 2°37.161 3.8 79 1.7 102110 97
2002-12-13 08:49:59 51°9.073 2°37.16 3.7 92 1.7 102120 97
2002-12-13 08:50:04 51°9.074 2°37.159 4.3 94 1.7 102120 97
2002-12-13 08:50:09 51°9.075 2°37.158 4 94 1.7 102120 97
2002-12-13 08:50:14 51°9.076 2°37.157 4.2 88 1.7 102120 97
2002-12-13 08:50:19 51°9.078 2°37.156 3.9 94 1.7 102110 97
2002-12-13 08:50:23 51°9.078 2°37.155 4.7 100 1.7 102110 97
2002-12-13 08:50:29 51°9.08 2°37.154 3.9 98 1.7 102110 97
2002-12-13 08:50:34 51°9.081 2°37.153 3.8 97 1.7 102110 97
2002-12-13 08:50:39 51°9.082 2°37.153 3.7 100 1.7 102120 97
2002-12-13 08:50:44 51°9.083 2°37.152 4.3 107 1.7 102120 97
2002-12-13 08:50:49 51°9.084 2°37.151 5 103 1.8 102120 97
2002-12-13 08:50:53 51°9.085 2°37.15 4.9 102 1.8 102120 97
2002-12-13 08:50:59 51°9.086 2°37.15 5.5 104 1.8 102110 97
2002-12-13 08:51:03 51°9.087 2°37.149 5.3 107 1.8 102110 97
2002-12-13 08:51:09 51°9.088 2°37.148 4.8 97 1.8 102110 97
2002-12-13 08:51:13 51°9.09 2°37.148 4.4 101 1.8 102110 97
2002-12-13 08:51:19 51°9.091 2°37.147 5 105 1.8 102110 97
2002-12-13 08:51:24 51°9.092 2°37.146 5.2 98 1.8 102110 97
2002-12-13 08:51:29 51°9.093 2°37.146 4.8 112 1.7 102110 97
2002-12-13 08:51:34 51°9.095 2°37.145 5.3 110 1.7 102110 97
2002-12-13 08:51:39 51°9.096 2°37.145 5.8 105 1.7 102110 97
2002-12-13 08:51:43 51°9.096 2°37.144 5.5 108 1.7 102110 97
2002-12-13 08:51:49 51°9.098 2°37.144 5 112 1.7 102110 97
2002-12-13 08:51:54 51°9.099 2°37.143 4.7 118 1.7 102110 97
2002-12-13 08:51:59 51°9.1 2°37.143 4.9 116 1.7 102110 97
2002-12-13 08:52:03 51°9.102 2°37.142 5.2 112 1.7 102110 97
2002-12-13 08:52:09 51°9.103 2°37.142 5.1 113 1.7 102110 97
2002-12-13 08:52:14 51°9.104 2°37.141 4.9 115 1.7 102110 97
2002-12-13 08:52:19 51°9.105 2°37.14 5.6 117 1.7 102110 97
2002-12-13 08:52:24 51°9.106 2°37.14 4.7 119 1.7 102110 97
2002-12-13 08:52:29 51°9.107 2°37.14 5 118 1.7 102110 97
2002-12-13 08:52:33 51°9.108 2°37.139 5.2 112 1.7 102110 97
2002-12-13 08:52:39 51°9.11 2°37.139 4.8 109 1.7 102110 97
2002-12-13 08:52:44 51°9.111 2°37.139 4.4 113 1.7 102110 97
2002-12-13 08:52:49 51°9.112 2°37.138 4.9 115 1.7 102110 97
2002-12-13 08:52:54 51°9.113 2°37.138 4.3 122 1.7 102110 97
2002-12-13 08:52:59 51°9.114 2°37.138 4.5 122 1.7 102110 97
2002-12-13 08:53:04 51°9.115 2°37.137 4.6 121 1.7 102110 97
2002-12-13 08:53:09 51°9.117 2°37.137 5.1 124 1.7 102110 97
2002-12-13 08:53:14 51°9.118 2°37.137 5.2 113 1.7 102110 97
2002-12-13 08:53:19 51°9.119 2°37.137 4.6 118 1.7 102110 97
2002-12-13 08:53:24 51°9.12 2°37.136 4.5 115 1.7 102110 97
2002-12-13 08:53:29 51°9.121 2°37.136 4.9 115 1.7 102110 97
2002-12-13 08:53:33 51°9.122 2°37.136 5.1 120 1.7 102110 97
2002-12-13 08:53:39 51°9.123 2°37.136 4.4 112 1.7 102110 97
2002-12-13 08:53:44 51°9.124 2°37.135 4.6 120 1.7 102110 97
2002-12-13 08:53:49 51°9.125 2°37.135 5.2 118 1.7 102110 97
2002-12-13 08:53:54 51°9.126 2°37.135 4.8 121 1.7 102110 97
2002-12-13 08:53:59 51°9.128 2°37.135 4.7 119 1.7 102110 97
2002-12-13 08:54:04 51°9.129 2°37.134 5.2 113 1.7 102110 97
2002-12-13 08:54:09 51°9.13 2°37.134 5.1 121 1.7 102110 97
2002-12-13 08:54:14 51°9.131 2°37.134 4.7 118 1.7 102110 97
2002-12-13 08:54:19 51°9.132 2°37.134 4.5 117 1.7 102110 97
2002-12-13 08:54:24 51°9.133 2°37.134 4.7 122 1.7 102110 97
2002-12-13 08:54:29 51°9.134 2°37.133 4.5 129 1.7 102110 97
2002-12-13 08:54:33 51°9.135 2°37.133 4.5 122 1.7 102110 97
2002-12-13 08:54:39 51°9.136 2°37.133 4.9 129 1.7 102110 97
2002-12-13 08:54:44 51°9.138 2°37.133 4.3 128 1.7 102110 97
2002-12-13 08:54:49 51°9.139 2°37.133 5 126 1.7 102110 97
2002-12-13 08:54:54 51°9.139 2°37.133 4.9 128 1.7 102110 97
2002-12-13 08:54:59 51°9.141 2°37.133 4.5 125 1.7 102110 97
2002-12-13 08:55:03 51°9.141 2°37.133 4 126 1.7 102110 97
2002-12-13 08:55:09 51°9.143 2°37.132 4.3 128 1.7 102110 97
2002-12-13 08:55:13 51°9.144 2°37.133 5.1 132 1.7 102110 97
2002-12-13 08:55:19 51°9.145 2°37.132 5 133 1.7 102110 97
2002-12-13 08:55:24 51°9.146 2°37.133 5 131 1.7 102110 97
2002-12-13 08:55:29 51°9.147 2°37.133 5.2 135 1.7 102110 97
2002-12-13 08:55:33 51°9.147 2°37.133 4.8 131 1.7 102110 97
2002-12-13 08:55:39 51°9.149 2°37.133 4.9 136 1.7 102110 97
2002-12-13 08:55:44 51°9.149 2°37.133 4.1 131 1.7 102110 97
2002-12-13 08:55:49 51°9.15 2°37.133 4.5 133 1.7 102110 97
2002-12-13 08:55:54 51°9.151 2°37.133 5.1 128 1.7 102110 97
2002-12-13 08:55:59 51°9.152 2°37.133 4.5 124 1.7 102110 97
2002-12-13 08:56:04 51°9.153 2°37.133 4.5 130 1.7 102110 97
2002-12-13 08:56:09 51°9.153 2°37.133 4.8 137 1.7 102110 97
2002-12-13 08:56:14 51°9.154 2°37.133 5.6 144 1.7 102110 97
2002-12-13 08:56:19 51°9.155 2°37.133 4.8 137 1.7 102110 97
2002-12-13 08:56:23 51°9.156 2°37.133 5.4 131 1.7 102110 97
2002-12-13 08:56:29 51°9.157 2°37.133 5 135 1.7 102110 97
2002-12-13 08:56:34 51°9.158 2°37.133 4.6 137 1.7 102110 97
2002-12-13 08:56:39 51°9.159 2°37.133 4.8 137 1.7 102110 97
2002-12-13 08:56:44 51°9.161 2°37.133 5.2 136 1.7 102110 97
2002-12-13 08:56:49 51°9.162 2°37.133 5.4 134 1.7 102120 97
2002-12-13 08:56:53 51°9.163 2°37.133 5.9 143 1.7 102120 97
2002-12-13 08:56:59 51°9.165 2°37.134 5 141 1.7 102110 97
2002-12-13 08:57:04 51°9.166 2°37.134 5.3 138 1.7 102110 97
2002-12-13 08:57:09 51°9.168 2°37.134 5.6 140 1.7 102110 97
2002-12-13 08:57:14 51°9.169 2°37.134 5.6 141 1.7 102110 97
2002-12-13 08:57:19 51°9.17 2°37.135 5.4 144 1.7 102110 97
2002-12-13 08:57:24 51°9.172 2°37.135 5.3 136 1.7 102110 97
2002-12-13 08:57:29 51°9.174 2°37.135 5.8 146 1.7 102110 97
2002-12-13 08:57:33 51°9.175 2°37.135 5.3 150 1.7 102110 97
2002-12-13 08:57:39 51°9.177 2°37.136 5.4 142 1.7 102110 97
2002-12-13 08:57:44 51°9.179 2°37.137 5.3 146 1.7 102110 97
2002-12-13 08:57:49 51°9.181 2°37.137 4.7 145 1.7 102110 97
2002-12-13 08:57:54 51°9.183 2°37.138 5.2 148 1.7 102110 97
2002-12-13 08:57:59 51°9.185 2°37.139 4.9 151 1.7 102110 97
2002-12-13 08:58:04 51°9.186 2°37.139 4.9 155 1.7 102110 97
2002-12-13 08:58:09 51°9.188 2°37.14 5.1 159 1.7 102120 97
2002-12-13 08:58:14 51°9.19 2°37.141 5.2 154 1.7 102120 97
2002-12-13 08:58:19 51°9.192 2°37.141 5.5 153 1.7 102110 97
2002-12-13 08:58:23 51°9.194 2°37.142 5.6 156 1.7 102110 97
2002-12-13 08:58:29 51°9.196 2°37.143 6 150 1.7 102120 97
2002-12-13 08:58:33 51°9.198 2°37.144 5.5 150 1.7 102120 97
2002-12-13 08:58:39 51°9.201 2°37.145 5.2 160 1.7 102110 97
2002-12-13 08:58:44 51°9.203 2°37.147 5.6 158 1.7 102110 97
2002-12-13 08:58:49 51°9.205 2°37.148 5.6 153 1.7 102110 97
2002-12-13 08:58:54 51°9.207 2°37.149 5 158 1.7 102110 97
2002-12-13 08:58:59 51°9.209 2°37.15 5.2 158 1.7 102110 97
2002-12-13 08:59:04 51°9.211 2°37.151 5.4 158 1.7 102110 97
2002-12-13 08:59:09 51°9.213 2°37.152 4.4 159 1.7 102120 97
2002-12-13 08:59:14 51°9.215 2°37.154 5.1 176 1.7 102120 97
2002-12-13 08:59:19 51°9.216 2°37.155 5.2 162 1.7 102110 97
2002-12-13 08:59:23 51°9.218 2°37.156 5.8 171 1.7 102110 97
2002-12-13 08:59:29 51°9.22 2°37.157 6.3 169 1.7 102110 97
2002-12-13 08:59:34 51°9.222 2°37.158 5.8 167 1.7 102110 97
2002-12-13 08:59:39 51°9.224 2°37.16 5.6 163 1.7 102110 97
2002-12-13 08:59:44 51°9.225 2°37.161 5.5 171 1.7 102110 97
2002-12-13 08:59:49 51°9.227 2°37.162 6 169 1.7 102120 97
2002-12-13 08:59:53 51°9.228 2°37.163 6.4 170 1.7 102120 97
2002-12-13 08:59:59 51°9.231 2°37.164 6.2 172 1.7 102120 97
2002-12-13 09:00:03 51°9.232 2°37.166 6.5 176 1.7 102120 97
2002-12-13 09:00:09 51°9.235 2°37.169 6.3 176 1.7 102110 97
2002-12-13 09:00:13 51°9.237 2°37.171 5.7 195 1.7 102110 97
2002-12-13 09:00:19 51°9.241 2°37.177 6 196 1.7 102110 97
2002-12-13 09:00:23 51°9.244 2°37.182 7.2 205 1.7 102110 97
2002-12-13 09:00:29 51°9.248 2°37.19 6.7 216 1.7 102120 97
2002-12-13 09:00:34 51°9.25 2°37.198 7.3 220 1.7 102120 97
2002-12-13 09:00:39 51°9.252 2°37.207 7.1 222 1.7 102110 97
2002-12-13 09:00:44 51°9.253 2°37.216 6.7 224 1.7 102110 97
2002-12-13 09:00:49 51°9.254 2°37.224 7.1 231 1.7 102110 97
2002-12-13 09:00:54 51°9.254 2°37.234 7 240 1.7 102110 97
2002-12-13 09:00:59 51°9.253 2°37.242 7.3 244 1.7 102120 97
2002-12-13 09:01:04 51°9.252 2°37.251 8.2 249 1.7 102120 97
2002-12-13 09:01:09 51°9.25 2°37.26 6.9 254 1.7 102120 97
2002-12-13 09:01:13 51°9.248 2°37.266 7.2 258 1.7 102120 97
2002-12-13 09:01:19 51°9.245 2°37.275 7.4 264 1.7 102110 97
2002-12-13 09:01:24 51°9.241 2°37.282 7.6 270 1.7 102110 97
2002-12-13 09:01:29 51°9.237 2°37.288 7.2 272 1.7 102110 97
2002-12-13 09:01:34 51°9.233 2°37.293 7.2 282 1.7 102110 97
2002-12-13 09:01:39 51°9.228 2°37.297 7 289 1.7 102110 97
2002-12-13 09:01:44 51°9.223 2°37.301 7.2 295 1.7 102110 97
2002-12-13 09:01:49 51°9.217 2°37.303 7.4 290 1.7 102110 97
2002-12-13 09:01:53 51°9.213 2°37.304 7.1 303 1.7 102110 97
2002-12-13 09:01:57 51°9.209 2°37.304 7.3 304 1.7 102110 97
2002-12-13 09:02:04 51°9.201 2°37.304 7.1 306 1.7 102110 97
2002-12-13 09:02:09 51°9.195 2°37.303 6.9 304 1.7 102130 97
2002-12-13 09:02:14 51°9.189 2°37.301 5.7 306 1.7 102130 97
2002-12-13 09:02:17 51°9.185 2°37.3 5.2 305 1.7 102120 97
2002-12-13 09:02:24 51°9.176 2°37.297 5.8 305 1.7 102120 97
2002-12-13 09:02:29 51°9.171 2°37.294 4.4 305 1.7 102130 97
2002-12-13 09:02:34 51°9.164 2°37.291 5.2 308 1.7 102130 97
2002-12-13 09:02:39 51°9.158 2°37.288 5.2 308 1.7 102130 97
2002-12-13 09:02:44 51°9.152 2°37.284 4.8 317 1.7 102130 97
2002-12-13 09:02:49 51°9.146 2°37.28 4.4 310 1.7 102130 97
2002-12-13 09:02:53 51°9.141 2°37.276 3.1 316 1.7 102130 97
2002-12-13 09:02:59 51°9.134 2°37.272 3.6 303 1.7 102130 97
2002-12-13 09:03:04 51°9.129 2°37.268 3.2 318 1.7 102130 97
2002-12-13 09:03:09 51°9.124 2°37.263 2.1 318 1.7 102130 97
2002-12-13 09:03:13 51°9.12 2°37.261 2.3 302 1.7 102130 97
2002-12-13 09:03:19 51°9.115 2°37.256 2.4 310 1.8 102130 97
2002-12-13 09:03:24 51°9.111 2°37.253 0.7 327 1.8 102130 97
2002-12-13 09:03:29 51°9.108 2°37.249 1.1 331 1.8 102130 97
2002-12-13 09:03:34 51°9.105 2°37.246 1.2 333 1.8 102130 97
2002-12-13 09:03:39 51°9.102 2°37.242 1.5 343 1.8 102130 97
2002-12-13 09:03:43 51°9.101 2°37.24 3 349 1.8 102130 97
2002-12-13 09:03:49 51°9.1 2°37.238 3.7 354 1.8 102130 97
2002-12-13 09:03:53 51°9.099 2°37.238 4.1 2 1.8 102130 97
2002-12-13 09:03:59 51°9.099 2°37.238 4.6 1 1.8 102130 97
2002-12-13 09:04:02 51°9.099 2°37.238 3.6   1.8 102130 97
2002-12-13 09:04:09 51°9.1 2°37.238 4 10 1.8 102130 97
2002-12-13 09:04:14 51°9.1 2°37.238 3.8 10 1.8 102130 97
2002-12-13 09:04:19 51°9.1 2°37.237 4.4 15 1.8 102130 97
2002-12-13 09:04:24 51°9.1 2°37.237 4.5 3 1.8 102130 97
2002-12-13 09:04:29 51°9.1 2°37.236 5 2 1.9 102130 97
2002-12-13 09:04:34 51°9.1 2°37.236 5.6 343 1.9 102130 97
2002-12-13 09:04:39 51°9.1 2°37.236 4.5 9 1.9 102130 97
2002-12-13 09:04:44 51°9.1 2°37.235 4.6 12 1.9 102130 97
2002-12-13 09:04:49 51°9.101 2°37.235 4.3 9 1.9 102140 97
2002-12-13 09:04:53 51°9.101 2°37.234 4 14 1.9 102140 97
2002-12-13 09:04:59 51°9.101 2°37.233 4.1 8 1.9 102130 97
2002-12-13 09:05:04 51°9.101 2°37.233 4 16 1.9 102130 97
2002-12-13 09:05:09 51°9.102 2°37.232 3.3 7 1.9 102130 97
2002-12-13 09:05:13 51°9.102 2°37.231 3.6 3 1.9 102130 97
2002-12-13 09:05:19 51°9.102 2°37.23 3.7 9 1.9 102140 97
2002-12-13 09:05:24 51°9.102 2°37.229 4.1 8 1.9 102140 97
2002-12-13 09:05:29 51°9.102 2°37.228 4.2 24 2 102140 96
2002-12-13 09:05:34 51°9.103 2°37.227 4 4 2 102140 96
2002-12-13 09:05:39 51°9.103 2°37.226 3.7 3 2 102130 96
2002-12-13 09:05:42 51°9.103 2°37.226 3.6 4 2 102130 96
2002-12-13 09:05:49 51°9.103 2°37.225 3.3 5 2 102140 97
2002-12-13 09:05:54 51°9.103 2°37.224 2.5 344 2 102140 97
2002-12-13 09:05:59 51°9.102 2°37.223 2.6 351 2.1 102140 96
2002-12-13 09:06:04 51°9.103 2°37.222 4.1 356 2.1 102140 96
2002-12-13 09:06:09 51°9.103 2°37.221 3 346 2.1 102130 96
2002-12-13 09:06:14 51°9.103 2°37.22 4.6 349 2.1 102130 96
2002-12-13 09:06:17 51°9.103 2°37.22 4.2 1 2.1 102140 96
2002-12-13 09:06:23 51°9.103 2°37.219 3.9 5 2.1 102140 96
2002-12-13 09:06:29 51°9.103 2°37.218 4.2 8 2.1 102140 96
2002-12-13 09:06:33 51°9.103 2°37.217 4.7 17 2.1 102140 96
2002-12-13 09:06:39 51°9.103 2°37.216 4.5 7 2.1 102140 96
2002-12-13 09:06:43 51°9.104 2°37.216 4.3 355 2.1 102140 96
2002-12-13 09:06:49 51°9.104 2°37.215 4.5 359 2.1 102140 96
2002-12-13 09:06:54 51°9.104 2°37.215 4.3 359 2.1 102140 96
2002-12-13 09:06:59 51°9.104 2°37.214 5.1   2.1 102140 96
2002-12-13 09:07:03 51°9.104 2°37.214 5.4 355 2.1 102140 96
2002-12-13 09:07:09 51°9.105 2°37.213 5.5 359 2.1 102140 96
2002-12-13 09:07:13 51°9.105 2°37.213 4.9 354 2.1 102140 96
2002-12-13 09:07:19 51°9.106 2°37.213 4.4 349 2.1 102140 96
2002-12-13 09:07:24 51°9.106 2°37.213 4.1 353 2.1 102140 96
2002-12-13 09:07:29 51°9.107 2°37.213 4.9 358 2.1 102150 96
2002-12-13 09:07:33 51°9.107 2°37.213 4.9 360 2.1 102150 96
2002-12-13 09:07:39 51°9.108 2°37.212 4.1 3 2.1 102150 96
2002-12-13 09:07:43 51°9.108 2°37.213 3.7 7 2.1 102150 96
2002-12-13 09:07:49 51°9.108 2°37.213 4.3 12 2.1 102150 96
2002-12-13 09:07:53 51°9.109 2°37.213 4 353 2.1 102150 96
2002-12-13 09:07:59 51°9.11 2°37.213 4.2 355 2.1 102140 96
2002-12-13 09:08:04 51°9.11 2°37.213 1.6 336 2.1 102140 96
2002-12-13 09:08:09 51°9.111 2°37.214 2.2 337 2.1 102150 96
2002-12-13 09:08:13 51°9.111 2°37.214 1.4 337 2.1 102150 96
2002-12-13 09:08:17 51°9.112 2°37.214 1 342 2.1 102150 96
2002-12-13 09:08:24 51°9.112 2°37.215 1.3 349 2.1 102150 96
2002-12-13 09:08:29 51°9.113 2°37.215 2.4 316 2.1 102150 96
2002-12-13 09:08:33 51°9.114 2°37.215 2.7 355 2.1 102150 96
2002-12-13 09:08:39 51°9.114 2°37.215 3.1 355 2.1 102150 96
2002-12-13 09:08:44 51°9.115 2°37.215 2 339 2.1 102150 96
2002-12-13 09:08:49 51°9.115 2°37.216 2.5 350 2.1 102150 96
2002-12-13 09:08:54 51°9.116 2°37.216 1.9 341 2.1 102150 96
2002-12-13 09:08:59 51°9.117 2°37.216 3.6 349 2.1 102150 96
2002-12-13 09:09:02 51°9.117 2°37.216 2 1 2.1 102150 96
2002-12-13 09:09:09 51°9.117 2°37.216 2.3 359 2.1 102150 96
2002-12-13 09:09:14 51°9.118 2°37.217 2.3 7 2.1 102150 96
2002-12-13 09:09:19 51°9.118 2°37.217 3.5 359 2.1 102150 96
2002-12-13 09:09:22 51°9.118 2°37.217 3.2 358 2.1 102150 96
2002-12-13 09:09:29 51°9.119 2°37.217 2.8 348 2.2 102150 96
2002-12-13 09:09:34 51°9.119 2°37.217 2.4 351 2.2 102150 96
2002-12-13 09:09:39 51°9.12 2°37.217 2.3 340 2.2 102150 96
2002-12-13 09:09:44 51°9.12 2°37.217 1.3 342 2.2 102150 96
2002-12-13 09:09:49 51°9.12 2°37.217 1.6 323 2.2 102150 96
2002-12-13 09:09:54 51°9.121 2°37.216 0.8 336 2.2 102150 96
2002-12-13 09:09:57 51°9.121 2°37.216 0.9 321 2.2 102150 96
2002-12-13 09:10:03 51°9.121 2°37.216 0.6 343 2.2 102150 96
2002-12-13 09:10:09 51°9.121 2°37.215 1.3 340 2.1 102150 96
2002-12-13 09:10:14 51°9.121 2°37.215 1 338 2.1 102150 96
2002-12-13 09:10:19 51°9.122 2°37.215 0.5 345 2.1 102150 96
2002-12-13 09:10:24 51°9.122 2°37.215 0.6 338 2.1 102150 96
2002-12-13 09:10:29 51°9.122 2°37.214 1.3 325 2.1 102150 96
2002-12-13 09:10:34 51°9.122 2°37.214 2 313 2.1 102150 96
2002-12-13 09:10:39 51°9.122 2°37.213 1.5 316 2.1 102150 96
2002-12-13 09:10:44 51°9.122 2°37.213 2.6 309 2.1 102150 96
2002-12-13 09:10:49 51°9.122 2°37.212 2.9 313 2.1 102150 96
2002-12-13 09:10:53 51°9.122 2°37.212 1.9 317 2.1 102150 96
2002-12-13 09:10:59 51°9.122 2°37.212 1.6 323 2.2 102150 96
2002-12-13 09:11:04 51°9.122 2°37.211 1.2 318 2.2 102150 96
2002-12-13 09:11:09 51°9.122 2°37.211 3.2 302 2.2 102150 96
2002-12-13 09:11:14 51°9.122 2°37.211 1.8 307 2.2 102150 96
2002-12-13 09:11:18 51°9.122 2°37.211 2.3 315 2.2 102150 96
2002-12-13 09:11:24 51°9.122 2°37.21 2.6 298 2.2 102150 96
2002-12-13 09:11:29 51°9.122 2°37.21 3.8 308 2.2 102150 96
2002-12-13 09:11:33 51°9.122 2°37.209 3.3 302 2.2 102150 96
2002-12-13 09:11:39 51°9.121 2°37.209 2.7 307 2.2 102150 96
2002-12-13 09:11:44 51°9.121 2°37.209 2.2 305 2.2 102150 96
2002-12-13 09:11:49 51°9.121 2°37.209 3.5 302 2.2 102150 96
2002-12-13 09:11:53 51°9.121 2°37.209 2.7 302 2.2 102150 96
2002-12-13 09:11:59 51°9.121 2°37.208 3.1 309 2.2 102150 96
2002-12-13 09:12:04 51°9.121 2°37.208 2.2 315 2.2 102150 96
2002-12-13 09:12:09 51°9.12 2°37.208 2.5 311 2.1 102150 96
2002-12-13 09:12:14 51°9.12 2°37.208 2.6 309 2.1 102150 96
2002-12-13 09:12:19 51°9.12 2°37.208 1.9 301 2.1 102150 96
2002-12-13 09:12:23 51°9.12 2°37.207 3.1 306 2.1 102150 96
2002-12-13 09:12:29 51°9.119 2°37.207 3.3 304 2.1 102150 96
2002-12-13 09:12:34 51°9.119 2°37.208 4 302 2.1 102150 96
2002-12-13 09:12:39 51°9.119 2°37.207 3 305 2.1 102150 96
2002-12-13 09:12:44 51°9.118 2°37.207 3.8 296 2.1 102150 96
2002-12-13 09:12:49 51°9.118 2°37.207 4.3 294 2.2 102150 96
2002-12-13 09:12:54 51°9.117 2°37.207 3.8 290 2.2 102150 96
2002-12-13 09:12:59 51°9.117 2°37.206 3.6 289 2.2 102150 96
2002-12-13 09:13:04 51°9.117 2°37.206 4.5 289 2.2 102150 96
2002-12-13 09:13:09 51°9.116 2°37.206 4.4 285 2.2 102150 96
2002-12-13 09:13:13 51°9.116 2°37.206 4.7 298 2.2 102150 96
2002-12-13 09:13:19 51°9.115 2°37.206 4.1 305 2.2 102150 96
2002-12-13 09:13:24 51°9.115 2°37.206 4.3 290 2.2 102150 96
2002-12-13 09:13:29 51°9.114 2°37.205 4.1 293 2.1 102150 96
2002-12-13 09:13:33 51°9.114 2°37.205 4.1 293 2.1 102150 96
2002-12-13 09:13:39 51°9.113 2°37.205 4.6 286 2.2 102150 96
2002-12-13 09:13:44 51°9.112 2°37.205 4.3 290 2.2 102150 96
2002-12-13 09:13:49 51°9.112 2°37.205 2.6 290 2.2 102150 96
2002-12-13 09:13:54 51°9.111 2°37.205 4.1 295 2.2 102150 96
2002-12-13 09:13:59 51°9.11 2°37.205 4.5 293 2.2 102150 96
2002-12-13 09:14:04 51°9.11 2°37.205 4.2 292 2.2 102150 96
2002-12-13 09:14:09 51°9.108 2°37.205 4.2 301 2.1 102150 96
2002-12-13 09:14:14 51°9.107 2°37.204 5.2 300 2.1 102150 96
2002-12-13 09:14:19 51°9.105 2°37.204 4.7 303 2.2 102150 96
2002-12-13 09:14:24 51°9.102 2°37.203 4.9 295 2.2 102150 96
2002-12-13 09:14:29 51°9.099 2°37.202 4.5 305 2.1 102150 96
2002-12-13 09:14:34 51°9.096 2°37.201 4.2 306 2.1 102150 96
2002-12-13 09:14:39 51°9.093 2°37.199 3.9 305 2.1 102150 96
2002-12-13 09:14:43 51°9.091 2°37.197 4 303 2.1 102150 96
2002-12-13 09:14:49 51°9.087 2°37.194 3.8 305 2.1 102150 96
2002-12-13 09:14:54 51°9.083 2°37.191 3.5 307 2.1 102150 96
2002-12-13 09:14:59 51°9.08 2°37.187 2.7 318 2.1 102150 96
2002-12-13 09:15:04 51°9.077 2°37.182 2.1 306 2.1 102150 96
2002-12-13 09:15:09 51°9.074 2°37.178 3.1 303 2.1 102150 96
2002-12-13 09:15:13 51°9.071 2°37.174 1.5 323 2.1 102150 96
2002-12-13 09:15:19 51°9.068 2°37.168 0.8 330 2.1 102150 96
2002-12-13 09:15:21 51°9.067 2°37.166 1.3 304 2.1 102150 96
2002-12-13 09:15:29 51°9.064 2°37.158 1.2 337 2.1 102150 96
2002-12-13 09:15:34 51°9.062 2°37.152 1 324 2.1 102150 96
2002-12-13 09:15:39 51°9.06 2°37.147 0.4 338 2.1 102150 96
2002-12-13 09:15:44 51°9.059 2°37.142 0.7 324 2.1 102150 96
2002-12-13 09:15:49 51°9.057 2°37.137 1 337 2.1 102150 96
2002-12-13 09:15:54 51°9.056 2°37.131 0.6 345 2.1 102150 96
2002-12-13 09:15:57 51°9.055 2°37.128 1.8 345 2.1 102150 96
2002-12-13 09:16:05 51°9.054 2°37.12 0.4 343 2.1 102150 96
2002-12-13 09:16:09 51°9.053 2°37.116 1.5 346 2.1 102150 96
2002-12-13 09:16:14 51°9.052 2°37.11 3.1 353 2.1 102150 96
2002-12-13 09:16:19 51°9.052 2°37.105 2.9 360 2.1 102150 96
2002-12-13 09:16:24 51°9.051 2°37.1 2.7 6 2.1 102150 96
2002-12-13 09:16:29 51°9.051 2°37.095 3.5 355 2.1 102150 96
2002-12-13 09:16:33 51°9.051 2°37.091 3.4 357 2.1 102150 96
2002-12-13 09:16:39 51°9.051 2°37.084 3.6 5 2.1 102140 96
2002-12-13 09:16:43 51°9.051 2°37.08 3 3 2.1 102140 96
2002-12-13 09:16:49 51°9.052 2°37.074 3.1 9 2.1 102140 96
2002-12-13 09:16:53 51°9.052 2°37.071 3.2 13 2.1 102140 96
2002-12-13 09:16:58 51°9.053 2°37.065 3.2 17 2.1 102140 96
2002-12-13 09:17:02 51°9.053 2°37.062 2.9 15 2.1 102140 96
2002-12-13 09:17:09 51°9.054 2°37.055 3 22 2.1 102140 96
2002-12-13 09:17:14 51°9.056 2°37.051 3.1 29 2.1 102140 96
2002-12-13 09:17:19 51°9.057 2°37.046 3 37 2.1 102140 96
2002-12-13 09:17:24 51°9.057 2°37.042 2.9 39 2.1 102140 96
2002-12-13 09:17:29 51°9.059 2°37.037 2.6 37 2.1 102140 96
2002-12-13 09:17:34 51°9.06 2°37.033 2.7 29 2.1 102140 96
2002-12-13 09:17:37 51°9.061 2°37.031 2.6 49 2.1 102140 96
2002-12-13 09:17:43 51°9.063 2°37.026 2.8 36 2.1 102140 96
2002-12-13 09:17:49 51°9.065 2°37.021 3.3 133 2.1 102140 96
2002-12-13 09:17:54 51°9.066 2°37.017 3.1 317 2.1 102140 96
2002-12-13 09:17:59 51°9.068 2°37.013 2.8 50 2 102140 96
2002-12-13 09:18:04 51°9.07 2°37.01 2.8 53 2 102140 96
2002-12-13 09:18:09 51°9.072 2°37.006 2.4 49 2 102140 96
2002-12-13 09:18:14 51°9.074 2°37.003 3 63 2 102140 96
2002-12-13 09:18:19 51°9.076 2°37 3.2 69 2.1 102140 96
2002-12-13 09:18:24 51°9.078 2°36.997 2.6 71 2.1 102140 96
2002-12-13 09:18:29 51°9.081 2°36.994 3 79 2.2 102140 96
2002-12-13 09:18:34 51°9.083 2°36.991 2.7 79 2.2 102140 96
2002-12-13 09:18:39 51°9.085 2°36.989 2.5 82 2.2 102150 96
2002-12-13 09:18:43 51°9.087 2°36.987 2.7 86 2.2 102150 96
2002-12-13 09:18:49 51°9.09 2°36.984 2.3 82 2.2 102150 96
2002-12-13 09:18:54 51°9.093 2°36.982 2.6 83 2.2 102150 96
2002-12-13 09:18:59 51°9.096 2°36.98 3.1 83 2.2 102140 96
2002-12-13 09:19:02 51°9.097 2°36.979 2.7 90 2.2 102140 96
2002-12-13 09:19:09 51°9.101 2°36.976 2.6 95 2.2 102150 96
2002-12-13 09:19:14 51°9.103 2°36.975 2.4 91 2.2 102150 96
2002-12-13 09:19:19 51°9.106 2°36.973 3 98 2.2 102150 96
2002-12-13 09:19:24 51°9.108 2°36.972 3 110 2.2 102150 96
2002-12-13 09:19:29 51°9.111 2°36.971 3.2 99 2.1 102150 96
2002-12-13 09:19:34 51°9.114 2°36.969 3.3 104 2.1 102150 96
2002-12-13 09:19:39 51°9.116 2°36.969 3.7 109 2.1 102150 96
2002-12-13 09:19:43 51°9.119 2°36.968 3.8 103 2.1 102150 96
2002-12-13 09:19:49 51°9.122 2°36.967 3.2 107 2.1 102150 96
2002-12-13 09:19:53 51°9.124 2°36.967 3.3 103 2.1 102150 96
2002-12-13 09:19:59 51°9.128 2°36.966 3.4 112 2.1 102150 96
2002-12-13 09:20:04 51°9.13 2°36.966 3.5 115 2.1 102150 96
2002-12-13 09:20:09 51°9.133 2°36.966 3.4 119 2.1 102150 96
2002-12-13 09:20:14 51°9.136 2°36.966 3.9 116 2.1 102150 96
2002-12-13 09:20:19 51°9.139 2°36.966 3.4 121 2.1 102150 96
2002-12-13 09:20:22 51°9.14 2°36.966 3.3 130 2.1 102150 96
2002-12-13 09:20:29 51°9.144 2°36.966 3.4 127 2.1 102150 96
2002-12-13 09:20:34 51°9.147 2°36.967 3.6 132 2.1 102150 96
2002-12-13 09:20:39 51°9.15 2°36.968 3.6 131 2.1 102150 96
2002-12-13 09:20:44 51°9.153 2°36.968 3.3 133 2.1 102150 96
2002-12-13 09:20:49 51°9.156 2°36.969 3.4 131 2.1 102150 96
2002-12-13 09:20:54 51°9.158 2°36.97 3.3 131 2.1 102150 96
2002-12-13 09:20:59 51°9.161 2°36.971 3.9 132 2.1 102150 96
2002-12-13 09:21:02 51°9.163 2°36.972 3.8 132 2.1 102150 96
2002-12-13 09:21:09 51°9.166 2°36.974 4.3 143 2.1 102150 96
2002-12-13 09:21:13 51°9.169 2°36.975 3.7 136 2.1 102150 96
2002-12-13 09:21:19 51°9.172 2°36.977 3.5 143 2.1 102150 96
2002-12-13 09:21:25 51°9.176 2°36.979 3.7 143 2.1 102150 96
2002-12-13 09:21:29 51°9.178 2°36.98 3.1 145 2.1 102150 96
2002-12-13 09:21:34 51°9.18 2°36.982 3.1 150 2.1 102150 96
2002-12-13 09:21:38 51°9.183 2°36.984 3 149 2.1 102150 96
2002-12-13 09:21:44 51°9.186 2°36.987 3.3 156 2.1 102150 96
2002-12-13 09:21:49 51°9.188 2°36.989 3.1 159 2.1 102150 96
2002-12-13 09:21:54 51°9.19 2°36.991 3.2 161 2.1 102150 96
2002-12-13 09:21:59 51°9.193 2°36.994 3.4 160 2.1 102150 96
2002-12-13 09:22:03 51°9.195 2°36.996 3.7 166 2.1 102150 96
2002-12-13 09:22:09 51°9.198 2°36.999 3.8 165 2.1 102150 96
2002-12-13 09:22:14 51°9.2 2°37.002 4.4 160 2.1 102150 96
2002-12-13 09:22:17 51°9.202 2°37.004 4.6 172 2.1 102160 96
2002-12-13 09:22:24 51°9.205 2°37.008 4.4 166 2.1 102160 96
2002-12-13 09:22:29 51°9.207 2°37.011 4.3 159 2.1 102150 96
2002-12-13 09:22:34 51°9.209 2°37.014 3.5 161 2.1 102150 96
2002-12-13 09:22:39 51°9.211 2°37.017 4 169 2.1 102150 96
2002-12-13 09:22:44 51°9.213 2°37.02 3.9 170 2.1 102150 96
2002-12-13 09:22:49 51°9.215 2°37.023 3.6 183 2.1 102150 96
2002-12-13 09:22:53 51°9.217 2°37.026 3.9 179 2.1 102150 96
2002-12-13 09:22:59 51°9.219 2°37.03 3.9 187 2.1 102150 96
2002-12-13 09:23:01 51°9.22 2°37.032 4.5 181 2.1 102150 96
2002-12-13 09:23:09 51°9.222 2°37.037 3.9 182 2.1 102140 96
2002-12-13 09:23:14 51°9.224 2°37.041 3.7 183 2.1 102140 96
2002-12-13 09:23:19 51°9.225 2°37.044 2.6 180 2.1 102150 96
2002-12-13 09:23:23 51°9.226 2°37.047 3.3 182 2.1 102150 96
2002-12-13 09:23:29 51°9.228 2°37.051 3.6 183 2.1 102140 96
2002-12-13 09:23:34 51°9.229 2°37.055 4.1 179 2.1 102140 96
2002-12-13 09:23:39 51°9.231 2°37.059 3.6 184 2.1 102150 96
2002-12-13 09:23:44 51°9.232 2°37.062 3.5 186 2.1 102150 96
2002-12-13 09:23:49 51°9.233 2°37.066 3.8 190 2 102140 96
2002-12-13 09:23:54 51°9.234 2°37.071 3.9 194 2 102140 96
2002-12-13 09:23:59 51°9.236 2°37.074 4.1 196 2.1 102150 96
2002-12-13 09:24:03 51°9.236 2°37.077 3.9 195 2.1 102150 96
2002-12-13 09:24:09 51°9.238 2°37.082 3.9 208 2 102150 96
2002-12-13 09:24:13 51°9.238 2°37.085 4.6 202 2 102150 96
2002-12-13 09:24:19 51°9.24 2°37.09 4.7 197 2.1 102150 96
2002-12-13 09:24:23 51°9.24 2°37.093 4.7 205 2.1 102150 96
2002-12-13 09:24:29 51°9.241 2°37.098 4.5 210 2.1 102150 96
2002-12-13 09:24:34 51°9.241 2°37.102 4.4 216 2.1 102150 96
2002-12-13 09:24:39 51°9.242 2°37.106 4.7 209 2.1 102140 96
2002-12-13 09:24:43 51°9.242 2°37.109 4.9 209 2.1 102140 96
2002-12-13 09:24:49 51°9.242 2°37.114 4.7 208 2.1 102150 96
2002-12-13 09:24:54 51°9.243 2°37.118 5 213 2.1 102150 96
2002-12-13 09:24:59 51°9.243 2°37.123 5.4 211 2.1 102150 96
2002-12-13 09:25:05 51°9.243 2°37.129 4.9 198 2.1 102150 96
2002-12-13 09:25:09 51°9.244 2°37.134 4.8 194 2.1 102150 96
2002-12-13 09:25:14 51°9.244 2°37.14 5 199 2.1 102150 96
2002-12-13 09:25:19 51°9.245 2°37.146 4.2 184 2 102170 96
2002-12-13 09:25:24 51°9.246 2°37.153 5.6 199 2 102170 96
2002-12-13 09:25:29 51°9.249 2°37.161 5.2 197 2.1 102150 96
2002-12-13 09:25:34 51°9.251 2°37.169 5.1 196 2.1 102150 96
2002-12-13 09:25:39 51°9.254 2°37.178 5.4 190 2.1 102150 96
2002-12-13 09:25:44 51°9.258 2°37.188 4.6 183 2.1 102150 96
2002-12-13 09:25:49 51°9.263 2°37.197 5.3 176 2.1 102150 96
2002-12-13 09:25:54 51°9.269 2°37.205 4.4 178 2.1 102150 96
2002-12-13 09:25:59 51°9.276 2°37.213 4.4 174 2.1 102150 96
2002-12-13 09:26:04 51°9.284 2°37.22 5 177 2.1 102150 96
2002-12-13 09:26:09 51°9.292 2°37.226 4.9 175 2.1 102150 96
2002-12-13 09:26:14 51°9.301 2°37.23 4.7 157 2.1 102150 96
2002-12-13 09:26:19 51°9.31 2°37.232 3.7 152 2.1 102160 96
2002-12-13 09:26:23 51°9.318 2°37.233 3.1 134 2.1 102160 96
2002-12-13 09:26:29 51°9.329 2°37.231 2.6 122 2.1 102150 96
2002-12-13 09:26:34 51°9.339 2°37.228 2 137 2.1 102150 96
2002-12-13 09:26:39 51°9.348 2°37.223 1.8 144 2.1 102150 96
2002-12-13 09:26:44 51°9.356 2°37.216 1 144 2.1 102150 96
2002-12-13 09:26:49 51°9.364 2°37.207 0.7 144 2.1 102150 96
2002-12-13 09:26:54 51°9.371 2°37.197 0.3 143 2.1 102150 96
2002-12-13 09:26:59 51°9.377 2°37.186 0.2 144 2.1 102160 96
2002-12-13 09:27:04 51°9.381 2°37.174 0.6 255 2.1 102160 96
2002-12-13 09:27:09 51°9.384 2°37.162 1.3 309 2.1 102150 96
2002-12-13 09:27:14 51°9.385 2°37.149 2.5 292 2.1 102150 96
2002-12-13 09:27:19 51°9.386 2°37.136 2.6 326 2.1 102160 96
2002-12-13 09:27:23 51°9.385 2°37.125 3.6 293 2.1 102160 96
2002-12-13 09:27:29 51°9.382 2°37.11 4.8 297 2.1 102170 96
2002-12-13 09:27:33 51°9.381 2°37.098 4.4 297 2.1 102170 96
2002-12-13 09:27:39 51°9.377 2°37.082 4.6 294 2.1 102160 96
2002-12-13 09:27:44 51°9.374 2°37.067 5.4 297 2.1 102160 96
2002-12-13 09:27:49 51°9.369 2°37.053 5.1 294 2.1 102160 96
2002-12-13 09:27:54 51°9.365 2°37.038 4.9 287 2.1 102160 96
2002-12-13 09:27:59 51°9.36 2°37.022 5 289 2.1 102160 96
2002-12-13 09:28:04 51°9.355 2°37.005 5 280 2.1 102160 96
2002-12-13 09:28:09 51°9.348 2°36.987 5 277 2.1 102160 96
2002-12-13 09:28:14 51°9.342 2°36.968 5.9 276 2.1 102160 96
2002-12-13 09:28:19 51°9.334 2°36.947 5.5 276 2.1 102160 96
2002-12-13 09:28:23 51°9.328 2°36.929 5.9 269 2.1 102160 96
2002-12-13 09:28:29 51°9.318 2°36.902 6.6 270 2.1 102160 96
2002-12-13 09:28:34 51°9.31 2°36.878 6.6 275 2.1 102160 96
2002-12-13 09:28:37 51°9.305 2°36.863 6.6 273 2.1 102150 96
2002-12-13 09:28:43 51°9.295 2°36.834 6.3 267 2.1 102150 96
2002-12-13 09:28:49 51°9.285 2°36.803 6.5 273 2.1 102150 96
2002-12-13 09:28:54 51°9.277 2°36.777 6.7 275 2.1 102150 96
2002-12-13 09:28:59 51°9.269 2°36.752 6 270 2.1 102150 96
2002-12-13 09:29:02 51°9.264 2°36.736 6.6 274 2.1 102150 96
2002-12-13 09:29:09 51°9.252 2°36.7 7.1 271 2.1 102150 96
2002-12-13 09:29:14 51°9.243 2°36.673 6.6 276 2.1 102150 96
2002-12-13 09:29:18 51°9.237 2°36.652 6.2 274 2.1 102150 96
2002-12-13 09:29:24 51°9.227 2°36.62 6.8 272 2.1 102150 96
2002-12-13 09:29:29 51°9.219 2°36.593 7.7 269 2.1 102150 96
2002-12-13 09:29:34 51°9.211 2°36.566 7.9 274 2.1 102150 96
2002-12-13 09:29:39 51°9.203 2°36.54 6.8 275 2.1 102150 96
2002-12-13 09:29:42 51°9.198 2°36.523 6 269 2.1 102150 96
2002-12-13 09:29:49 51°9.186 2°36.486 6.4 266 2.1 102150 97
2002-12-13 09:29:54 51°9.178 2°36.459 7.1 267 2.1 102150 97
2002-12-13 09:29:59 51°9.17 2°36.432 6.7 266 2.1 102150 96
2002-12-13 09:30:04 51°9.162 2°36.405 6.1 269 2.1 102150 96
2002-12-13 09:30:09 51°9.154 2°36.378 6.5 266 2.1 102150 96
2002-12-13 09:30:14 51°9.145 2°36.351 6.9 270 2.1 102150 96
2002-12-13 09:30:17 51°9.14 2°36.335 7.3 264 2.1 102160 96
2002-12-13 09:30:24 51°9.129 2°36.297 7.2 279 2.1 102160 96
2002-12-13 09:30:29 51°9.12 2°36.27 6.8 281 2.1 102160 96
2002-12-13 09:30:34 51°9.112 2°36.243 6.3 280 2.1 102160 96
2002-12-13 09:30:39 51°9.104 2°36.217 7 266 2.1 102160 97
2002-12-13 09:30:43 51°9.098 2°36.195 6.6 275 2.1 102160 97
2002-12-13 09:30:49 51°9.087 2°36.163 6.6 272 2.1 102160 97
2002-12-13 09:30:54 51°9.08 2°36.136 6.4 275 2.1 102160 97
2002-12-13 09:30:59 51°9.071 2°36.11 7.4 269 2.1 102170 97
2002-12-13 09:31:04 51°9.063 2°36.082 6.9 276 2.1 102170 97
2002-12-13 09:31:09 51°9.055 2°36.055 6.2 271 2.1 102160 97
2002-12-13 09:31:14 51°9.047 2°36.028 7.2 281 2.1 102160 97
2002-12-13 09:31:19 51°9.039 2°36.001 7.1 287 2.1 102160 97
2002-12-13 09:31:24 51°9.031 2°35.973 6.3 277 2.1 102160 97
2002-12-13 09:31:29 51°9.022 2°35.946 6.7 271 2.1 102160 97
2002-12-13 09:31:34 51°9.015 2°35.919 7 272 2.1 102160 97
2002-12-13 09:31:39 51°9.007 2°35.892 6.9 271 2.1 102160 97
2002-12-13 09:31:44 51°8.999 2°35.865 6.8 276 2.1 102160 97
2002-12-13 09:31:49 51°8.99 2°35.838 6.9 275 2.1 102160 97
2002-12-13 09:31:54 51°8.982 2°35.811 6.3 271 2.1 102160 97
2002-12-13 09:31:59 51°8.974 2°35.784 6.3 272 2.1 102160 97
2002-12-13 09:32:04 51°8.966 2°35.756 7.1 275 2.1 102160 97
2002-12-13 09:32:09 51°8.958 2°35.729 6.8 273 2.1 102160 97
2002-12-13 09:32:14 51°8.95 2°35.702 6.5 270 2.1 102160 97
2002-12-13 09:32:19 51°8.942 2°35.675 7.4 272 2 102160 97
2002-12-13 09:32:23 51°8.935 2°35.653 7.7 277 2 102160 97
2002-12-13 09:32:29 51°8.925 2°35.621 7.1 284 2 102160 97
2002-12-13 09:32:34 51°8.917 2°35.593 7.6 279 2 102160 97
2002-12-13 09:32:39 51°8.909 2°35.566 6.6 275 2.1 102160 97
2002-12-13 09:32:44 51°8.901 2°35.539 6.6 275 2.1 102160 97
2002-12-13 09:32:49 51°8.893 2°35.512 5.8 271 2 102160 97
2002-12-13 09:32:54 51°8.885 2°35.485 6.2 269 2 102160 97
2002-12-13 09:32:59 51°8.877 2°35.457 6.2 269 2 102160 97
2002-12-13 09:33:04 51°8.869 2°35.43 6.1 272 2 102160 97
2002-12-13 09:33:09 51°8.86 2°35.403 6.4 279 2 102160 97
2002-12-13 09:33:14 51°8.852 2°35.375 6.4 273 2 102160 97
2002-12-13 09:33:17 51°8.848 2°35.359 6.5 276 2 102160 97
2002-12-13 09:33:23 51°8.838 2°35.326 7.5 277 2 102160 97
2002-12-13 09:33:29 51°8.828 2°35.293 7.1 271 2 102160 97
2002-12-13 09:33:34 51°8.82 2°35.266 6.7 274 2 102160 97
2002-12-13 09:33:39 51°8.812 2°35.238 7.1 272 2 102160 97
2002-12-13 09:33:44 51°8.804 2°35.211 6.8 279 2 102160 97
2002-12-13 09:33:49 51°8.796 2°35.184 7 271 2.1 102160 97
2002-12-13 09:33:54 51°8.788 2°35.157 7 274 2.1 102160 97
2002-12-13 09:33:59 51°8.78 2°35.13 7.6 273 2.1 102160 97
2002-12-13 09:34:04 51°8.772 2°35.103 7.5 273 2.1 102160 97
2002-12-13 09:34:09 51°8.764 2°35.075 7.6 278 2.1 102160 97
2002-12-13 09:34:13 51°8.757 2°35.054 7 279 2.1 102160 97
2002-12-13 09:34:19 51°8.748 2°35.021 7.6 286 2.1 102160 97
2002-12-13 09:34:23 51°8.741 2°34.999 7 286 2.1 102160 97
2002-12-13 09:34:29 51°8.732 2°34.967 6.6 280 2.1 102160 97
2002-12-13 09:34:33 51°8.725 2°34.945 6.8 274 2.1 102160 97
2002-12-13 09:34:39 51°8.716 2°34.912 7.1 277 2.1 102160 97
2002-12-13 09:34:44 51°8.708 2°34.885 6.2 278 2.1 102160 97
2002-12-13 09:34:49 51°8.7 2°34.858 7.2 281 2.1 102160 97
2002-12-13 09:34:54 51°8.692 2°34.83 7 279 2.1 102160 97
2002-12-13 09:34:58 51°8.686 2°34.808 6.9 282 2.1 102160 97
2002-12-13 09:35:04 51°8.676 2°34.776 7 273 2.1 102160 97
2002-12-13 09:35:09 51°8.668 2°34.748 7 276 2.1 102160 97
2002-12-13 09:35:14 51°8.66 2°34.721 8 275 2.1 102160 97
2002-12-13 09:35:19 51°8.651 2°34.694 6.8 276 2.1 102160 97
2002-12-13 09:35:22 51°8.646 2°34.678 7.5 281 2.1 102160 97
2002-12-13 09:35:29 51°8.635 2°34.64 7.6 275 2.1 102160 97
2002-12-13 09:35:34 51°8.628 2°34.612 6.9 288 2.1 102160 97
2002-12-13 09:35:39 51°8.619 2°34.585 6.6 275 2.1 102160 97
2002-12-13 09:35:44 51°8.611 2°34.558 6.5 278 2.1 102160 97
2002-12-13 09:35:49 51°8.603 2°34.53 7.1 281 2.1 102160 97
2002-12-13 09:35:54 51°8.595 2°34.503 7.1 279 2.1 102160 97
2002-12-13 09:35:58 51°8.589 2°34.482 7.4 278 2.1 102160 97
2002-12-13 09:36:04 51°8.579 2°34.45 7.3 281 2.1 102160 97
2002-12-13 09:36:09 51°8.571 2°34.424 7.4 276 2.1 102160 97
2002-12-13 09:36:14 51°8.563 2°34.397 6.8 277 2.1 102160 97
2002-12-13 09:36:19 51°8.555 2°34.37 7.3 276 2.1 102160 97
2002-12-13 09:36:22 51°8.55 2°34.353 7.5 281 2.1 102160 97
2002-12-13 09:36:29 51°8.539 2°34.316 8.1 279 2.1 102160 97
2002-12-13 09:36:34 51°8.531 2°34.289 7.6 277 2.1 102160 97
2002-12-13 09:36:39 51°8.523 2°34.262 7.5 282 2.1 102160 97
2002-12-13 09:36:44 51°8.515 2°34.234 7.2 279 2.1 102160 97
2002-12-13 09:36:49 51°8.507 2°34.207 8 284 2.1 102160 97
2002-12-13 09:36:54 51°8.499 2°34.18 7.5 280 2.1 102160 97
2002-12-13 09:36:57 51°8.494 2°34.163 7 276 2.1 102160 97
2002-12-13 09:37:04 51°8.483 2°34.125 7.4 279 2.1 102160 97
2002-12-13 09:37:09 51°8.475 2°34.098 6.8 280 2.1 102160 97
2002-12-13 09:37:14 51°8.467 2°34.071 7.3 271 2.1 102160 97
2002-12-13 09:37:19 51°8.459 2°34.044 7.4 276 2.1 102160 97
2002-12-13 09:37:23 51°8.452 2°34.023 7.8 274 2.1 102160 97
2002-12-13 09:37:29 51°8.443 2°33.99 7.9 280 2.1 102160 97
2002-12-13 09:37:33 51°8.436 2°33.968 7.8 276 2.1 102160 97
2002-12-13 09:37:37 51°8.43 2°33.946 8.9 279 2.1 102160 97
2002-12-13 09:37:44 51°8.419 2°33.908 7.9 281 2.1 102160 97
2002-12-13 09:37:49 51°8.411 2°33.882 7.4 272 2.1 102160 97
2002-12-13 09:37:54 51°8.403 2°33.854 8.5 269 2.1 102160 97
2002-12-13 09:37:59 51°8.395 2°33.827 8.3 272 2.1 102160 97
2002-12-13 09:38:03 51°8.389 2°33.806 7.7 274 2.1 102160 97
2002-12-13 09:38:09 51°8.379 2°33.773 7.4 277 2.1 102160 97
2002-12-13 09:38:14 51°8.371 2°33.746 6.8 275 2.1 102160 97
2002-12-13 09:38:19 51°8.363 2°33.719 6.4 274 2.2 102160 97
2002-12-13 09:38:24 51°8.355 2°33.692 7.3 272 2.2 102160 97
2002-12-13 09:38:29 51°8.347 2°33.664 7.7 274 2.1 102160 97
2002-12-13 09:38:34 51°8.339 2°33.636 7.8 281 2.1 102160 97
2002-12-13 09:38:39 51°8.331 2°33.609 7.4 282 2.1 102160 97
2002-12-13 09:38:44 51°8.323 2°33.583 7.5 279 2.1 102160 97
2002-12-13 09:38:49 51°8.315 2°33.557 8.5 280 2.2 102160 97
2002-12-13 09:38:53 51°8.309 2°33.536 7.8 282 2.2 102160 97
2002-12-13 09:38:58 51°8.302 2°33.512 6.9 290 2.1 102160 97
2002-12-13 09:39:04 51°8.294 2°33.484 6.4 290 2.1 102160 97
2002-12-13 09:39:09 51°8.288 2°33.463 6.5 292 2.2 102160 97
2002-12-13 09:39:14 51°8.282 2°33.443 6.2 294 2.2 102160 97
2002-12-13 09:39:17 51°8.279 2°33.431 6.3 289 2.1 102160 97
2002-12-13 09:39:25 51°8.27 2°33.402 5.3 285 2.1 102160 97
2002-12-13 09:39:29 51°8.266 2°33.388 6.4 300 2.1 102160 97
2002-12-13 09:39:34 51°8.262 2°33.371 5.2 296 2.1 102160 97
2002-12-13 09:39:39 51°8.257 2°33.354 5.3 293 2.1 102170 97
2002-12-13 09:39:44 51°8.253 2°33.338 6.1 301 2.1 102170 97
2002-12-13 09:39:49 51°8.248 2°33.322 5 297 2.1 102170 97
2002-12-13 09:39:54 51°8.244 2°33.307 5.4 298 2.1 102170 97
2002-12-13 09:39:59 51°8.24 2°33.292 5.1 295 2.1 102170 97
2002-12-13 09:40:04 51°8.235 2°33.278 3.5 299 2.1 102170 97
2002-12-13 09:40:09 51°8.231 2°33.263 3.9 317 2.1 102170 97
2002-12-13 09:40:13 51°8.228 2°33.252 4.6 311 2.1 102170 97
2002-12-13 09:40:19 51°8.223 2°33.235 4.3 305 2.1 102170 97
2002-12-13 09:40:23 51°8.219 2°33.225 4.4 311 2.1 102170 97
2002-12-13 09:40:29 51°8.215 2°33.208 5.7 314 2.1 102170 97
2002-12-13 09:40:33 51°8.211 2°33.198 5.3 301 2.1 102170 97
2002-12-13 09:40:39 51°8.207 2°33.183 4.3 308 2.1 102170 97
2002-12-13 09:40:44 51°8.203 2°33.17 3.7 305 2.1 102170 97
2002-12-13 09:40:49 51°8.199 2°33.157 3.8 307 2.2 102170 97
2002-12-13 09:40:54 51°8.195 2°33.144 4.5 305 2.2 102170 97
2002-12-13 09:40:58 51°8.192 2°33.134 3.4 316 2.2 102160 97
2002-12-13 09:41:04 51°8.187 2°33.119 4.6 302 2.2 102160 97
2002-12-13 09:41:09 51°8.184 2°33.106 4.3 315 2.2 102170 97
2002-12-13 09:41:14 51°8.18 2°33.094 4.2 309 2.2 102170 97
2002-12-13 09:41:19 51°8.176 2°33.082 4.3 304 2.2 102170 97
2002-12-13 09:41:22 51°8.174 2°33.076 6.2 299 2.2 102170 97
2002-12-13 09:41:29 51°8.169 2°33.061 6.5 300 2.2 102160 97
2002-12-13 09:41:34 51°8.164 2°33.051 5.8 293 2.2 102160 97
2002-12-13 09:41:39 51°8.16 2°33.042 6.3 300 2.2 102170 97
2002-12-13 09:41:44 51°8.155 2°33.035 6.8 296 2.2 102170 97
2002-12-13 09:41:49 51°8.151 2°33.029 7.3 294 2.2 102170 97
2002-12-13 09:41:54 51°8.146 2°33.024 7.1 291 2.2 102170 97
2002-12-13 09:41:59 51°8.141 2°33.019 7.3 283 2.2 102160 97
2002-12-13 09:42:04 51°8.136 2°33.016 7.2 286 2.2 102160 97
2002-12-13 09:42:09 51°8.131 2°33.013 8.1 278 2.2 102160 97
2002-12-13 09:42:14 51°8.126 2°33.01 8.4 276 2.2 102160 97
2002-12-13 09:42:19 51°8.12 2°33.009 7.6 276 2.2 102160 97
2002-12-13 09:42:22 51°8.117 2°33.008 7.8 283 2.2 102160 97
2002-12-13 09:42:29 51°8.11 2°33.006 7.8 281 2.2 102160 96
2002-12-13 09:42:34 51°8.105 2°33.003 7.1 281 2.2 102160 96
2002-12-13 09:42:39 51°8.1 2°33.001 7.4 281 2.2 102160 97
2002-12-13 09:42:44 51°8.095 2°33 6.8 279 2.2 102160 97
2002-12-13 09:42:49 51°8.091 2°32.999 6.9 279 2.2 102160 96
2002-12-13 09:42:53 51°8.088 2°32.998 6.6 279 2.2 102160 96
2002-12-13 09:42:59 51°8.082 2°32.997 6.1 284 2.2 102160 96
2002-12-13 09:43:04 51°8.078 2°32.995 6.3 280 2.2 102160 96
2002-12-13 09:43:09 51°8.074 2°32.994 6 282 2.2 102160 97
2002-12-13 09:43:13 51°8.071 2°32.993 6.7 286 2.2 102160 97
2002-12-13 09:43:17 51°8.068 2°32.992 5.9 285 2.2 102160 97
2002-12-13 09:43:22 51°8.065 2°32.991 6.4 282 2.2 102160 97
2002-12-13 09:43:29 51°8.062 2°32.991 6.6 292 2.2 102160 97
2002-12-13 09:43:34 51°8.062 2°32.99 6.8 294 2.2 102160 97
2002-12-13 09:43:39 51°8.062 2°32.99 6.8 290 2.2 102160 96
2002-12-13 09:43:44 51°8.062 2°32.99 6.2 292 2.2 102160 96
2002-12-13 09:43:49 51°8.062 2°32.99 5.6 289 2.2 102160 97
2002-12-13 09:43:54 51°8.062 2°32.989 6.1 297 2.2 102160 97
2002-12-13 09:43:59 51°8.061 2°32.989 4.7 304 2.2 102160 96
2002-12-13 09:44:04 51°8.061 2°32.988 6.5 304 2.2 102160 96
2002-12-13 09:44:09 51°8.061 2°32.988 6.6 297 2.2 102160 97
2002-12-13 09:44:14 51°8.06 2°32.987 6.7 302 2.2 102160 97
2002-12-13 09:44:19 51°8.06 2°32.986 7.1 298 2.2 102160 96
2002-12-13 09:44:24 51°8.06 2°32.985 5.9 305 2.2 102160 96
2002-12-13 09:44:29 51°8.06 2°32.985 5.9 302 2.2 102160 96
2002-12-13 09:44:33 51°8.059 2°32.984 6.2 300 2.2 102160 96
2002-12-13 09:44:39 51°8.059 2°32.984 5.2 305 2.2 102180 96
2002-12-13 09:44:45 51°8.059 2°32.982 6.4 303 2.2 102180 96
2002-12-13 09:44:49 51°8.059 2°32.982 5.6 307 2.3 102170 96
2002-12-13 09:44:53 51°8.059 2°32.981 5.4 304 2.3 102170 96
2002-12-13 09:44:58 51°8.058 2°32.98 4.2 311 2.3 102170 96
2002-12-13 09:45:02 51°8.058 2°32.979 4.9 304 2.3 102170 96
2002-12-13 09:45:09 51°8.058 2°32.978 3 310 2.2 102170 96
2002-12-13 09:45:14 51°8.058 2°32.977 5.9 300 2.2 102170 96
2002-12-13 09:45:19 51°8.057 2°32.976 5.3 301 2.3 102170 96
2002-12-13 09:45:24 51°8.057 2°32.975 4.9 306 2.3 102170 96
2002-12-13 09:45:29 51°8.057 2°32.974 3.7 305 2.3 102170 96
2002-12-13 09:45:34 51°8.057 2°32.973 2.1 320 2.3 102170 96
2002-12-13 09:45:37 51°8.057 2°32.973 4.2 306 2.3 102160 96
2002-12-13 09:45:43 51°8.057 2°32.972 4.7 304 2.3 102160 96
2002-12-13 09:45:49 51°8.057 2°32.97 4.3 306 2.3 102150 96
2002-12-13 09:45:54 51°8.057 2°32.969 4.1 305 2.3 102150 96
2002-12-13 09:45:59 51°8.056 2°32.968 5.4 299 2.3 102160 96
2002-12-13 09:46:04 51°8.056 2°32.968 6.4 297 2.3 102160 96
2002-12-13 09:46:09 51°8.056 2°32.967 6 296 2.3 102150 96
2002-12-13 09:46:14 51°8.056 2°32.966 4.6 305 2.3 102150 96
2002-12-13 09:46:19 51°8.055 2°32.965 4.6 309 2.3 102160 96
2002-12-13 09:46:25 51°8.055 2°32.964 5.1 297 2.3 102160 96
2002-12-13 09:46:29 51°8.055 2°32.964 5.2 302 2.3 102150 96
2002-12-13 09:46:34 51°8.055 2°32.962 5.3 302 2.3 102150 96
2002-12-13 09:46:39 51°8.055 2°32.962 3.9 304 2.3 102160 96
2002-12-13 09:46:44 51°8.054 2°32.961 6.1 298 2.3 102160 96
2002-12-13 09:46:49 51°8.054 2°32.96 5 311 2.3 102160 96
2002-12-13 09:46:54 51°8.054 2°32.959 3.7 306 2.3 102160 96
2002-12-13 09:46:59 51°8.054 2°32.958 2.7 309 2.3 102150 96
2002-12-13 09:47:04 51°8.054 2°32.958 4.1 313 2.3 102150 96
2002-12-13 09:47:09 51°8.053 2°32.957 4.8 306 2.3 102160 96
2002-12-13 09:47:14 51°8.053 2°32.956 5.3 303 2.3 102160 96
2002-12-13 09:47:19 51°8.052 2°32.956 5 306 2.3 102150 96
2002-12-13 09:47:22 51°8.052 2°32.955 5.6 300 2.3 102150 96
2002-12-13 09:47:29 51°8.052 2°32.954 4.5 301 2.3 102150 96
2002-12-13 09:47:34 51°8.052 2°32.953 5.1 303 2.3 102150 96
2002-12-13 09:47:39 51°8.052 2°32.952 4.1 308 2.3 102160 96
2002-12-13 09:47:42 51°8.052 2°32.952 3.8 308 2.3 102160 96
2002-12-13 09:47:49 51°8.052 2°32.951 3.5 310 2.3 102160 96
2002-12-13 09:47:54 51°8.052 2°32.95 3.5 311 2.3 102160 96